Time;durP1;ratioP1;P1;durP2;ratioP2;P2;SDS_P1;SDS_P2;PMS_P1;PMS_P2;Temp;Humidity;BMP_temperature;BMP_pressure;BME280_temperature;BME280_humidity;BME280_pressure;Samples;Min_cycle;Max_cycle;Signal;HPM_P1;HPM_P2
2021/08/31 00:00:00;;;;;;;7.82;3.97;;;;;;;11.32;95.47;101077.66;4960501;28;20408;-62
2021/08/31 00:02:26;;;;;;;6.45;3.35;;;;;;;11.23;96.27;101071.66;4958064;28;20035;-62
2021/08/31 00:04:51;;;;;;;6.75;3.72;;;;;;;11.25;95.77;101074.97;4960765;28;20476;-62
2021/08/31 00:07:17;;;;;;;8.52;4.32;;;;;;;11.24;95.95;101090.34;4959489;28;20056;-62
2021/08/31 00:09:42;;;;;;;7.75;4.22;;;;;;;11.19;97.06;101078.53;4963040;28;20039;-62
2021/08/31 00:12:08;;;;;;;9.48;4.65;;;;;;;11.18;97.77;101084.97;4932720;28;20043;-62
2021/08/31 00:14:37;;;;;;;11.63;4.57;;;;;;;11.15;98.36;101080.84;4952122;28;20039;-62
2021/08/31 00:17:05;;;;;;;13.07;4.80;;;;;;;11.07;98.68;101078.38;4972159;28;20066;-62
2021/08/31 00:19:30;;;;;;;10.20;4.60;;;;;;;11.14;98.64;101084.56;4968227;28;20039;-62
2021/08/31 00:21:56;;;;;;;7.20;4.95;;;;;;;11.11;98.73;101076.91;4945941;28;20110;-62
2021/08/31 00:24:22;;;;;;;13.93;5.30;;;;;;;11.15;97.90;101074.59;4962095;28;20447;-62
2021/08/31 00:26:48;;;;;;;10.88;5.38;;;;;;;11.11;98.66;101075.03;4964546;28;20083;-62
2021/08/31 00:29:14;;;;;;;15.20;6.03;;;;;;;11.07;98.27;101078.38;4964619;28;20053;-62
2021/08/31 00:31:40;;;;;;;12.65;6.50;;;;;;;11.08;97.99;101082.72;4960520;28;20405;-62
2021/08/31 00:34:05;;;;;;;20.95;7.63;;;;;;;11.13;97.49;101072.94;4963206;28;20117;-62
2021/08/31 00:36:31;;;;;;;12.20;6.60;;;;;;;11.12;97.75;101073.97;4959254;28;20034;-62
2021/08/31 00:38:57;;;;;;;11.07;7.13;;;;;;;11.11;98.35;101075.03;4959666;28;20472;-63
2021/08/31 00:41:24;;;;;;;10.68;7.22;;;;;;;11.19;98.05;101083.91;4956105;28;20038;-61
2021/08/31 00:43:50;;;;;;;12.63;6.60;;;;;;;11.16;98.07;101079.78;4956714;28;20042;-61
2021/08/31 00:46:18;;;;;;;11.23;6.30;;;;;;;11.16;97.71;101087.03;4960511;28;20169;-62
2021/08/31 00:48:47;;;;;;;10.63;6.35;;;;;;;11.21;97.00;101079.13;4946120;28;20031;-62
2021/08/31 00:51:14;;;;;;;10.18;6.00;;;;;;;11.23;96.74;101087.84;4953921;28;20146;-62
2021/08/31 00:53:41;;;;;;;14.48;7.20;;;;;;;11.22;97.13;101073.53;4956564;28;20047;-62
2021/08/31 00:56:10;;;;;;;13.05;6.88;;;;;;;11.20;96.88;101075.63;4959272;28;20488;-62
2021/08/31 00:58:35;;;;;;;17.05;8.68;;;;;;;11.17;96.70;101072.50;4957555;28;20039;-62
2021/08/31 01:01:02;;;;;;;16.92;8.00;;;;;;;11.24;96.61;101076.84;4956878;28;20034;-62
2021/08/31 01:03:28;;;;;;;14.65;7.32;;;;;;;11.29;96.55;101070.81;4951249;28;20519;-62
2021/08/31 01:05:58;;;;;;;16.48;7.18;;;;;;;11.29;96.08;101073.50;4958676;28;20078;-62
2021/08/31 01:08:24;;;;;;;13.57;7.07;;;;;;;11.22;96.29;101075.41;4959536;28;20077;-62
2021/08/31 01:10:52;;;;;;;13.00;6.75;;;;;;;11.21;96.38;101081.84;4961868;28;20024;-62
2021/08/31 01:13:19;;;;;;;11.52;7.07;;;;;;;11.22;96.61;101078.09;4957344;28;20038;-62
2021/08/31 01:15:46;;;;;;;15.43;7.03;;;;;;;11.20;97.02;101082.88;4964357;28;20034;-62
2021/08/31 01:18:23;;;;;;;13.43;7.55;;;;;;;11.15;96.90;101077.28;4963261;28;20504;-62
2021/08/31 01:20:54;;;;;;;15.75;7.70;;;;;;;11.12;97.17;101084.78;4965235;28;20027;-62
2021/08/31 01:23:21;;;;;;;12.98;7.93;;;;;;;11.23;96.94;101077.91;4949421;28;20039;-62
2021/08/31 01:25:47;;;;;;;12.90;7.40;;;;;;;11.21;96.80;101076.44;4953510;28;20054;-62
2021/08/31 01:28:23;;;;;;;10.75;7.65;;;;;;;11.17;97.59;101077.91;4956022;28;20031;-62
2021/08/31 01:30:50;;;;;;;11.65;7.78;;;;;;;11.15;98.24;101088.94;4951293;28;20408;-62
2021/08/31 01:33:17;;;;;;;16.10;7.97;;;;;;;11.14;98.28;101079.19;4950492;28;20039;-62
2021/08/31 01:35:44;;;;;;;13.15;8.82;;;;;;;11.06;98.57;101090.19;4955301;28;20042;-62
2021/08/31 01:38:10;;;;;;;13.15;9.48;;;;;;;11.00;98.73;101077.56;4957568;28;20041;-62
2021/08/31 01:40:35;;;;;;;18.58;9.68;;;;;;;10.98;98.77;101083.16;4950114;28;20027;-62
2021/08/31 01:43:01;;;;;;;14.55;8.73;;;;;;;10.93;98.98;101082.97;4959645;28;20394;-64
2021/08/31 01:45:40;;;;;;;13.30;8.20;;;;;;;10.99;98.79;101079.44;4961000;28;20073;-62
2021/08/31 01:48:05;;;;;;;13.65;8.40;;;;;;;10.96;99.58;101080.69;4957944;28;20125;-62
2021/08/31 01:50:31;;;;;;;12.88;8.07;;;;;;;10.92;99.85;101079.47;4967012;28;20046;-62
2021/08/31 01:52:56;;;;;;;14.20;7.35;;;;;;;10.84;100.00;101082.38;4952778;28;20125;-62
2021/08/31 01:55:22;;;;;;;18.17;8.52;;;;;;;10.79;100.00;101083.00;4959197;28;20066;-62
2021/08/31 01:57:47;;;;;;;12.70;8.20;;;;;;;10.83;100.00;101089.63;4961860;28;20122;-62
2021/08/31 02:00:13;;;;;;;14.13;9.10;;;;;;;10.77;100.00;101085.09;4947662;28;20106;-61
2021/08/31 02:02:38;;;;;;;13.23;8.82;;;;;;;10.75;100.00;101081.78;4939340;28;20122;-61
2021/08/31 02:05:05;;;;;;;16.17;9.60;;;;;;;10.69;100.00;101080.75;4956252;28;20042;-62
2021/08/31 02:07:31;;;;;;;12.48;9.15;;;;;;;10.72;100.00;101079.50;4974237;28;20081;-62
2021/08/31 02:09:57;;;;;;;15.05;9.68;;;;;;;10.71;100.00;101082.41;4957211;28;20036;-62
2021/08/31 02:12:23;;;;;;;12.88;10.43;;;;;;;10.66;100.00;101074.94;4942241;28;20042;-62
2021/08/31 02:14:49;;;;;;;16.58;10.98;;;;;;;10.65;100.00;101087.59;4968471;28;20134;-62
2021/08/31 02:17:15;;;;;;;21.17;10.82;;;;;;;10.69;100.00;101086.16;4978510;28;20034;-62
2021/08/31 02:19:41;;;;;;;15.27;10.48;;;;;;;10.69;100.00;101096.09;4958457;28;20190;-62
2021/08/31 02:22:06;;;;;;;18.33;10.27;;;;;;;10.66;100.00;101097.34;4932355;28;20052;-62
2021/08/31 02:24:32;;;;;;;19.55;11.40;;;;;;;10.66;100.00;101101.91;4953126;28;20034;-62
2021/08/31 02:26:58;;;;;;;16.25;10.82;;;;;;;10.64;100.00;101104.81;4959534;28;20035;-62
2021/08/31 02:29:25;;;;;;;18.27;11.80;;;;;;;10.64;100.00;101104.81;4957331;28;20027;-62
2021/08/31 02:31:51;;;;;;;21.67;12.05;;;;;;;10.66;100.00;101101.91;4943612;28;20034;-62
2021/08/31 02:34:17;;;;;;;19.85;12.73;;;;;;;10.60;100.00;101102.72;4958737;28;20432;-62
2021/08/31 02:36:43;;;;;;;24.98;12.30;;;;;;;10.56;100.00;101098.81;4949745;28;20039;-62
2021/08/31 02:39:09;;;;;;;27.58;13.00;;;;;;;10.61;100.00;101099.00;4942767;28;20523;-62
2021/08/31 02:41:34;;;;;;;22.90;11.68;;;;;;;10.56;100.00;101110.41;4946855;28;20583;-62
2021/08/31 02:44:00;;;;;;;20.52;11.45;;;;;;;10.51;100.00;101097.56;4947264;28;20476;-62
2021/08/31 02:46:25;;;;;;;28.05;11.57;;;;;;;10.51;100.00;101102.09;4962339;28;20042;-62
2021/08/31 02:48:51;;;;;;;17.58;11.73;;;;;;;10.58;100.00;101096.72;4954590;28;20035;-62
2021/08/31 02:51:16;;;;;;;24.63;12.68;;;;;;;10.56;100.00;101099.63;4968523;28;20113;-62
2021/08/31 02:53:42;;;;;;;24.65;12.75;;;;;;;10.58;100.00;101096.72;4951299;28;20066;-62
2021/08/31 02:56:07;;;;;;;35.42;12.45;;;;;;;10.54;100.00;101090.91;4957371;28;20035;-62
2021/08/31 02:58:34;;;;;;;21.35;12.57;;;;;;;10.60;100.00;101097.34;4952272;28;20035;-62
2021/08/31 03:01:27;;;;;;;19.92;12.40;;;;;;;10.63;100.00;101094.22;4953438;28;20058;-63
2021/08/31 03:03:51;;;;;;;21.08;12.13;;;;;;;10.51;100.00;101102.09;4951929;28;20599;-63
2021/08/31 03:06:16;;;;;;;20.83;12.27;;;;;;;10.53;100.00;101092.78;4949126;28;20032;-63
2021/08/31 03:08:42;;;;;;;19.13;11.27;;;;;;;10.47;100.00;101076.63;4956583;28;20506;-62
2021/08/31 03:11:07;;;;;;;19.85;11.38;;;;;;;10.49;100.00;101094.25;4958022;28;20049;-63
2021/08/31 03:13:33;;;;;;;21.63;12.27;;;;;;;10.52;100.00;101093.84;4954409;28;20031;-63
2021/08/31 03:15:58;;;;;;;19.38;11.75;;;;;;;10.49;100.00;101096.94;4957117;28;20043;-63
2021/08/31 03:18:24;;;;;;;23.30;12.25;;;;;;;10.50;100.00;101089.69;4953785;28;20062;-63
2021/08/31 03:20:49;;;;;;;22.92;12.75;;;;;;;10.54;100.00;101099.00;4950820;28;20122;-62
2021/08/31 03:23:15;;;;;;;17.92;12.13;;;;;;;10.56;100.00;101094.22;4953950;28;20066;-63
2021/08/31 03:25:41;;;;;;;22.35;12.40;;;;;;;10.60;100.00;101089.25;4950754;28;20074;-63
2021/08/31 03:28:06;;;;;;;24.15;13.20;;;;;;;10.55;100.00;101089.88;4963936;28;20066;-63
2021/08/31 03:30:32;;;;;;;21.83;12.88;;;;;;;10.51;100.00;101094.03;4959671;28;20027;-63
2021/08/31 03:32:58;;;;;;;25.27;12.73;;;;;;;10.48;100.00;101084.50;4954827;28;20053;-63
2021/08/31 03:35:24;;;;;;;20.98;12.63;;;;;;;10.47;100.00;101099.03;4953501;28;20477;-63
2021/08/31 03:37:49;;;;;;;27.50;12.48;;;;;;;10.48;100.00;101097.13;4958124;28;20077;-63
2021/08/31 03:40:15;;;;;;;21.58;11.88;;;;;;;10.50;100.00;101087.81;4953132;28;20039;-63
2021/08/31 03:42:41;;;;;;;21.67;11.48;;;;;;;10.52;100.00;101093.00;4954318;28;20027;-63
2021/08/31 03:45:08;;;;;;;17.98;10.55;;;;;;;10.49;100.00;101101.50;4955239;28;20459;-63
2021/08/31 03:47:33;;;;;;;20.10;10.43;;;;;;;10.54;100.00;101096.31;4957227;28;20035;-64
2021/08/31 03:49:59;;;;;;;21.20;10.48;;;;;;;10.47;100.00;101098.16;4961196;28;20411;-64
2021/08/31 03:52:24;;;;;;;21.38;10.13;;;;;;;10.47;100.00;101096.31;4960534;28;20083;-64
2021/08/31 03:54:49;;;;;;;16.58;9.57;;;;;;;10.61;100.00;101101.69;4955417;28;20036;-63
2021/08/31 03:57:15;;;;;;;19.40;9.40;;;;;;;10.56;100.00;101101.50;4957590;28;20511;-64
2021/08/31 03:59:40;;;;;;;17.50;9.93;;;;;;;10.51;100.00;101100.25;4957119;28;20084;-64
2021/08/31 04:02:06;;;;;;;21.30;9.32;;;;;;;10.48;100.00;101100.69;4956808;28;20039;-63
2021/08/31 04:04:31;;;;;;;17.80;10.30;;;;;;;10.46;100.00;101099.22;4953162;28;20039;-64
2021/08/31 04:06:57;;;;;;;21.60;9.75;;;;;;;10.46;100.00;101101.91;4955565;28;20043;-64
2021/08/31 04:09:24;;;;;;;16.60;9.05;;;;;;;10.40;100.00;101093.63;4953920;28;20032;-63
2021/08/31 04:11:49;;;;;;;18.02;9.23;;;;;;;10.38;100.00;101097.53;4957185;28;20027;-62
2021/08/31 04:14:15;;;;;;;21.52;9.77;;;;;;;10.32;100.00;101107.25;4958488;28;20038;-62
2021/08/31 04:16:41;;;;;;;20.30;9.30;;;;;;;10.31;100.00;101104.78;4955381;28;20061;-62
2021/08/31 04:19:06;;;;;;;20.70;9.07;;;;;;;10.35;100.00;101103.34;4960418;28;20027;-63
2021/08/31 04:21:32;;;;;;;16.92;8.15;;;;;;;10.39;100.00;101104.59;4959177;28;20030;-63
2021/08/31 04:23:58;;;;;;;15.90;8.35;;;;;;;10.32;100.00;101101.88;4958185;28;20400;-63
2021/08/31 04:26:23;;;;;;;19.67;8.90;;;;;;;10.28;100.00;101100.63;4957718;28;20046;-63
2021/08/31 04:28:49;;;;;;;17.60;8.20;;;;;;;10.34;100.00;101102.50;4957254;28;20391;-63
2021/08/31 04:31:15;;;;;;;19.83;7.15;;;;;;;10.38;100.00;101113.69;4960834;28;20078;-64
2021/08/31 04:33:40;;;;;;;17.90;7.63;;;;;;;10.44;99.78;101110.22;4961691;28;20555;-64
2021/08/31 04:36:06;;;;;;;17.00;7.93;;;;;;;10.41;100.00;101113.31;4962039;28;20117;-64
2021/08/31 04:38:32;;;;;;;22.60;8.35;;;;;;;10.33;99.86;101111.63;4955758;28;20085;-62
2021/08/31 04:40:57;;;;;;;22.55;8.85;;;;;;;10.41;100.00;101129.47;4957138;28;20042;-62
2021/08/31 04:43:22;;;;;;;16.85;8.63;;;;;;;10.33;100.00;101117.00;4955178;28;20589;-61
2021/08/31 04:45:48;;;;;;;23.77;8.27;;;;;;;10.37;100.00;101117.44;4963020;28;20493;-62
2021/08/31 04:48:14;;;;;;;12.18;7.35;;;;;;;10.27;100.00;101115.13;4956351;28;20122;-62
2021/08/31 04:50:39;;;;;;;21.15;7.60;;;;;;;10.31;100.00;101112.88;4957682;28;20039;-62
2021/08/31 04:53:05;;;;;;;16.90;8.75;;;;;;;10.28;100.00;101114.09;4958633;28;20030;-62
2021/08/31 04:55:30;;;;;;;19.48;8.23;;;;;;;10.29;100.00;101123.03;4959817;28;20161;-63
2021/08/31 04:57:56;;;;;;;21.33;8.18;;;;;;;10.29;100.00;101115.75;4955880;28;20090;-62
2021/08/31 05:00:22;;;;;;;21.08;7.90;;;;;;;10.35;100.00;101123.00;4955197;28;20445;-62
2021/08/31 05:02:49;;;;;;;15.50;7.70;;;;;;;10.38;100.00;101122.59;4957969;28;20035;-63
2021/08/31 05:05:15;;;;;;;15.73;8.20;;;;;;;10.36;99.66;101123.84;4963511;28;20047;-62
2021/08/31 05:07:41;;;;;;;19.88;7.57;;;;;;;10.36;99.79;101123.84;4954946;28;20043;-62
2021/08/31 05:10:08;;;;;;;15.48;7.97;;;;;;;10.32;100.00;101126.13;4950466;28;20031;-62
2021/08/31 05:12:34;;;;;;;16.00;7.45;;;;;;;10.36;100.00;101121.16;4967455;28;20070;-63
2021/08/31 05:14:59;;;;;;;17.45;8.20;;;;;;;10.34;100.00;101131.31;4963701;28;20118;-63
2021/08/31 05:17:24;;;;;;;20.95;8.55;;;;;;;10.35;100.00;101127.59;4937449;28;20031;-62
2021/08/31 05:19:50;;;;;;;19.38;8.85;;;;;;;10.44;99.57;101129.06;4964860;28;20062;-62
2021/08/31 05:22:15;;;;;;;19.55;8.63;;;;;;;10.45;99.36;101130.72;4949973;28;20039;-62
2021/08/31 05:24:42;;;;;;;17.15;8.75;;;;;;;10.39;98.96;101126.97;4947066;28;20035;-63
2021/08/31 05:27:08;;;;;;;22.25;9.25;;;;;;;10.38;99.24;101124.47;4963737;28;20031;-63
2021/08/31 05:29:34;;;;;;;18.40;8.27;;;;;;;10.35;99.69;101138.34;4963130;28;20106;-63
2021/08/31 05:32:00;;;;;;;23.30;7.70;;;;;;;10.40;99.27;101133.22;4954268;28;20106;-63
2021/08/31 05:34:26;;;;;;;17.13;8.43;;;;;;;10.36;99.71;101143.53;4951212;28;20031;-63
2021/08/31 05:36:52;;;;;;;18.02;8.38;;;;;;;10.36;98.81;101143.53;4953829;28;20031;-63
2021/08/31 05:39:17;;;;;;;23.75;8.60;;;;;;;10.35;99.59;101141.03;4954892;28;20645;-62
2021/08/31 05:41:43;;;;;;;12.73;7.20;;;;;;;10.34;99.27;101136.69;4950786;28;20050;-63
2021/08/31 05:44:09;;;;;;;19.95;7.70;;;;;;;10.36;99.97;101150.78;4956350;28;20022;-62
2021/08/31 05:46:34;;;;;;;13.80;7.28;;;;;;;10.38;99.77;101148.72;4940370;28;21014;-62
2021/08/31 05:49:01;;;;;;;15.27;7.22;;;;;;;10.40;99.28;101154.75;4960615;28;20029;-62
2021/08/31 05:51:27;;;;;;;18.92;7.30;;;;;;;10.42;99.41;101151.84;4956371;28;20039;-63
2021/08/31 05:53:54;;;;;;;22.85;7.38;;;;;;;10.42;98.50;101160.75;4956921;28;20054;-63
2021/08/31 05:56:19;;;;;;;15.35;6.45;;;;;;;10.33;99.27;101162.78;4959239;28;20560;-62
2021/08/31 05:58:45;;;;;;;22.70;8.23;;;;;;;10.28;99.80;101159.06;4954339;28;20126;-62
2021/08/31 06:01:11;;;;;;;13.30;6.95;;;;;;;10.20;100.00;101165.47;4963470;28;20098;-63
2021/08/31 06:03:37;;;;;;;16.75;7.80;;;;;;;10.23;100.00;101163.22;4961265;28;20030;-62
2021/08/31 06:06:03;;;;;;;15.95;7.88;;;;;;;10.10;100.00;101164.00;4967915;28;20087;-62
2021/08/31 06:08:31;;;;;;;22.15;8.65;;;;;;;10.06;100.00;101167.31;4957285;28;20085;-62
2021/08/31 06:10:57;;;;;;;19.33;8.95;;;;;;;10.07;100.00;101167.09;4960161;28;20130;-62
2021/08/31 06:13:22;;;;;;;20.73;9.02;;;;;;;10.13;100.00;101165.47;4961360;28;20125;-62
2021/08/31 06:15:48;;;;;;;18.17;9.27;;;;;;;10.09;100.00;101169.59;4964652;28;20404;-62
2021/08/31 06:18:13;;;;;;;23.20;10.60;;;;;;;10.08;100.00;101167.94;4960458;28;20510;-61
2021/08/31 06:20:39;;;;;;;24.42;9.85;;;;;;;10.06;100.00;101167.31;4984088;28;20492;-62
2021/08/31 06:23:05;;;;;;;19.08;10.07;;;;;;;10.06;100.00;101161.94;4959950;28;20900;-62
2021/08/31 06:25:30;;;;;;;23.20;10.10;;;;;;;10.07;100.00;101171.66;4956955;28;20527;-62
2021/08/31 06:27:56;;;;;;;29.08;10.98;;;;;;;10.14;100.00;101179.75;4957208;28;20031;-62
2021/08/31 06:30:22;;;;;;;20.48;9.93;;;;;;;10.11;100.00;101183.69;4967126;28;20436;-62
2021/08/31 06:32:47;;;;;;;29.60;11.00;;;;;;;10.09;100.00;101173.09;4957042;28;20043;-62
2021/08/31 06:35:13;;;;;;;23.42;10.55;;;;;;;10.08;100.00;101179.53;4953321;28;20039;-62
2021/08/31 06:37:39;;;;;;;25.75;12.63;;;;;;;10.17;100.00;101179.34;4962896;28;20047;-64
2021/08/31 06:40:05;;;;;;;20.95;11.60;;;;;;;10.13;100.00;101176.22;4966806;28;20042;-62
2021/08/31 06:42:31;;;;;;;20.60;10.40;;;;;;;10.25;100.00;101188.06;4954219;28;20689;-62
2021/08/31 06:44:57;;;;;;;21.02;11.20;;;;;;;10.20;100.00;101187.84;4954563;28;20428;-63
2021/08/31 06:47:23;;;;;;;19.10;11.05;;;;;;;10.22;100.00;101185.78;4961430;28;20479;-63
2021/08/31 06:49:49;;;;;;;24.05;12.05;;;;;;;10.19;100.00;101188.88;4966932;28;20070;-63
2021/08/31 06:52:15;;;;;;;23.48;13.23;;;;;;;10.28;100.00;101194.88;4952662;28;20046;-62
2021/08/31 06:54:40;;;;;;;25.80;12.43;;;;;;;10.24;100.00;101191.78;4953291;28;20043;-63
2021/08/31 06:57:06;;;;;;;22.80;13.70;;;;;;;10.22;100.00;101196.56;4961204;28;20051;-63
2021/08/31 06:59:33;;;;;;;24.60;13.55;;;;;;;10.24;100.00;101194.47;4958305;28;20046;-63
2021/08/31 07:01:59;;;;;;;20.20;13.57;;;;;;;10.25;100.00;101198.84;4951662;28;20775;-64
2021/08/31 07:04:25;;;;;;;25.75;14.52;;;;;;;10.32;100.00;101192.63;4956686;28;20038;-63
2021/08/31 07:06:50;;;;;;;34.58;15.25;;;;;;;10.42;100.00;101197.63;4954020;28;20065;-64
2021/08/31 07:09:16;;;;;;;26.88;16.00;;;;;;;10.51;100.00;101196.38;4967606;28;20039;-63
2021/08/31 07:11:41;;;;;;;34.05;15.95;;;;;;;10.53;100.00;101187.09;4967581;28;20093;-63
2021/08/31 07:14:07;;;;;;;31.13;15.63;;;;;;;10.62;100.00;101206.59;4960308;28;20031;-63
2021/08/31 07:16:33;;;;;;;25.23;15.20;;;;;;;10.50;100.00;101203.66;4957751;28;20039;-63
2021/08/31 07:18:59;;;;;;;25.05;15.90;;;;;;;10.60;100.00;101210.50;4960673;28;20043;-63
2021/08/31 07:21:24;;;;;;;33.65;15.85;;;;;;;10.54;100.00;101207.59;4977269;28;20041;-63
2021/08/31 07:23:50;;;;;;;33.63;15.30;;;;;;;10.58;100.00;101210.69;4962389;28;20512;-63
2021/08/31 07:26:15;;;;;;;26.00;15.10;;;;;;;10.61;100.00;101215.69;4962480;28;21256;-63
2021/08/31 07:28:41;;;;;;;25.42;13.80;;;;;;;10.62;100.00;101203.03;4951639;28;20037;-63
2021/08/31 07:31:06;;;;;;;24.98;14.57;;;;;;;10.74;100.00;101214.03;4970804;28;20109;-64
2021/08/31 07:33:32;;;;;;;22.60;14.32;;;;;;;10.74;100.00;101209.47;4962473;28;20567;-64
2021/08/31 07:35:57;;;;;;;27.63;13.10;;;;;;;10.78;100.00;101212.59;4961493;28;20031;-63
2021/08/31 07:38:23;;;;;;;24.77;11.90;;;;;;;10.79;99.96;101211.56;4952125;28;20085;-63
2021/08/31 07:40:49;;;;;;;25.17;12.15;;;;;;;10.98;99.33;101204.47;4969236;28;20102;-63
2021/08/31 07:43:16;;;;;;;16.65;10.32;;;;;;;11.05;99.60;101199.91;4967537;28;20033;-63
2021/08/31 07:45:41;;;;;;;18.10;9.77;;;;;;;11.22;99.00;101194.06;4951419;28;20027;-64
2021/08/31 07:48:07;;;;;;;20.10;9.02;;;;;;;11.37;98.01;101202.72;4965666;28;20043;-64
2021/08/31 07:50:33;;;;;;;10.65;8.48;;;;;;;11.35;96.70;101204.81;4976755;28;20035;-64
2021/08/31 07:52:58;;;;;;;13.15;7.65;;;;;;;11.33;97.10;101211.47;4971943;28;20038;-64
2021/08/31 07:55:25;;;;;;;10.23;6.38;;;;;;;11.20;96.89;101215.00;4959811;28;20472;-63
2021/08/31 07:57:51;;;;;;;16.50;6.75;;;;;;;11.22;96.76;101212.94;4967262;28;20041;-66
2021/08/31 08:00:17;;;;;;;15.13;6.70;;;;;;;11.27;97.47;101224.75;4962344;28;20383;-67
2021/08/31 08:02:44;;;;;;;12.45;6.30;;;;;;;11.21;97.52;101219.38;4952699;28;20102;-66
2021/08/31 08:05:10;;;;;;;20.02;7.05;;;;;;;11.22;97.28;101221.88;4950683;28;20419;-66
2021/08/31 08:07:36;;;;;;;13.60;6.82;;;;;;;11.20;96.76;101215.88;4961516;28;20075;-66
2021/08/31 08:10:03;;;;;;;12.25;7.43;;;;;;;11.19;97.20;101226.84;4936997;28;20027;-66
2021/08/31 08:12:29;;;;;;;12.23;7.70;;;;;;;11.21;97.37;101227.47;4966293;28;20041;-66
2021/08/31 08:14:55;;;;;;;10.38;8.20;;;;;;;11.15;97.85;101234.53;4961748;28;20102;-65
2021/08/31 08:17:22;;;;;;;14.55;8.70;;;;;;;11.14;97.31;101232.88;4966521;28;20085;-66
2021/08/31 08:19:50;;;;;;;14.63;8.73;;;;;;;11.04;97.53;101237.88;4962261;28;20030;-66
2021/08/31 08:22:17;;;;;;;14.88;8.77;;;;;;;11.15;97.44;101239.94;4961578;28;20054;-66
2021/08/31 08:24:43;;;;;;;21.48;8.38;;;;;;;11.24;97.01;101240.53;4958585;28;20039;-65
2021/08/31 08:27:09;;;;;;;15.10;9.18;;;;;;;11.22;97.42;101240.75;4964739;28;20038;-66
2021/08/31 08:29:37;;;;;;;17.33;8.82;;;;;;;11.24;97.42;101246.75;4958266;28;20042;-66
2021/08/31 08:32:10;;;;;;;15.62;8.80;;;;;;;11.33;97.62;101247.34;4801731;28;10000876;-65
2021/08/31 08:34:37;;;;;;;17.42;8.77;;;;;;;11.26;97.79;101244.69;4964574;28;20320;-65
2021/08/31 08:37:04;;;;;;;18.67;8.30;;;;;;;11.36;99.50;101248.81;4949332;28;20034;-65
2021/08/31 08:39:30;;;;;;;12.57;7.82;;;;;;;11.43;99.54;101242.34;4948097;28;20039;-65
2021/08/31 08:41:56;;;;;;;12.40;7.30;;;;;;;11.63;97.67;101252.28;4958124;28;20035;-65
2021/08/31 08:44:21;;;;;;;12.07;6.95;;;;;;;11.64;97.84;101248.56;4951124;28;20093;-65
2021/08/31 08:46:47;;;;;;;13.85;6.70;;;;;;;11.56;98.02;101257.69;4958538;28;20031;-65
2021/08/31 08:49:14;;;;;;;11.40;7.70;;;;;;;11.45;98.11;101249.41;4955021;28;20062;-65
2021/08/31 08:51:40;;;;;;;15.27;7.75;;;;;;;11.39;99.27;101260.00;4952206;28;20039;-65
2021/08/31 08:54:07;;;;;;;18.10;8.30;;;;;;;11.46;99.60;101257.31;4953531;28;20047;-64
2021/08/31 08:56:34;;;;;;;13.25;8.32;;;;;;;11.39;99.01;101259.19;4955432;28;20046;-65
2021/08/31 08:59:00;;;;;;;13.95;8.43;;;;;;;11.32;98.54;101255.66;4957503;28;20094;-65
2021/08/31 09:01:40;;;;;;;9.05;7.35;;;;;;;11.25;99.52;101255.66;4944695;28;20039;-65
2021/08/31 09:04:06;;;;;;;15.93;7.85;;;;;;;11.38;100.00;101249.44;4959035;28;20053;-65
2021/08/31 09:06:32;;;;;;;10.98;8.40;;;;;;;11.46;99.43;101253.75;4970518;28;20030;-64
2021/08/31 09:09:00;;;;;;;13.45;7.28;;;;;;;11.35;99.39;101250.66;4961132;28;20489;-65
2021/08/31 09:11:32;;;;;;;10.70;6.63;;;;;;;11.26;100.00;101249.22;4954670;28;20035;-64
2021/08/31 09:14:25;;;;;;;19.88;8.05;;;;;;;11.24;100.00;101244.06;4958418;28;20057;-64
2021/08/31 09:16:58;;;;;;;15.30;7.60;;;;;;;11.38;100.00;101244.84;4963663;28;20042;-64
2021/08/31 09:19:39;;;;;;;10.85;6.68;;;;;;;11.53;99.06;101238.41;4953513;28;20039;-65
2021/08/31 09:22:21;;;;;;;13.90;6.95;;;;;;;11.57;98.56;101242.34;4954818;28;20038;-65
2021/08/31 09:25:08;;;;;;;12.70;6.55;;;;;;;11.61;97.60;101251.66;4953283;28;20039;-65
2021/08/31 09:27:43;;;;;;;10.80;5.97;;;;;;;11.58;98.00;101254.78;4953509;28;20098;-65
2021/08/31 09:30:23;;;;;;;9.00;5.40;;;;;;;11.70;97.44;101255.78;4964070;28;20033;-65
2021/08/31 09:33:12;;;;;;;11.68;5.25;;;;;;;11.84;97.22;101261.16;4955919;28;20122;-65
2021/08/31 09:35:44;;;;;;;8.65;4.70;;;;;;;11.87;97.35;101263.41;4953541;28;20564;-66
2021/08/31 09:38:11;;;;;;;7.20;4.70;;;;;;;11.98;97.05;101264.59;4964280;28;20313;-65
2021/08/31 09:40:42;;;;;;;8.70;4.88;;;;;;;11.94;96.17;101266.06;4956367;28;20090;-65
2021/08/31 09:43:14;;;;;;;8.55;5.32;;;;;;;11.71;96.94;101259.31;4954702;28;20626;-64
2021/08/31 09:45:43;;;;;;;10.55;5.80;;;;;;;11.70;96.99;101263.91;4951451;28;20102;-65
2021/08/31 09:48:10;;;;;;;7.88;5.97;;;;;;;11.63;96.93;101259.53;4955135;28;20035;-65
2021/08/31 09:50:40;;;;;;;12.32;6.75;;;;;;;11.64;97.42;101270.13;4961445;28;20074;-65
2021/08/31 09:53:10;;;;;;;10.57;5.90;;;;;;;11.68;96.18;101270.53;4960832;28;20047;-65
2021/08/31 09:55:36;;;;;;;17.17;7.72;;;;;;;11.66;96.82;101272.59;4963423;28;20027;-66
2021/08/31 09:58:22;;;;;;;21.88;8.95;;;;;;;11.92;96.26;101260.06;4965684;28;20035;-66
2021/08/31 10:00:50;;;;;;;14.73;8.90;;;;;;;11.82;96.86;101265.94;4954479;28;20027;-65
2021/08/31 10:03:17;;;;;;;16.60;8.63;;;;;;;11.86;97.36;101264.47;4951562;28;20032;-66
2021/08/31 10:05:44;;;;;;;18.52;9.45;;;;;;;11.97;97.34;101269.19;4948986;28;20042;-65
2021/08/31 10:08:10;;;;;;;19.75;8.88;;;;;;;12.06;96.33;101261.69;4959625;28;20052;-66
2021/08/31 10:10:38;;;;;;;19.15;7.97;;;;;;;11.95;96.18;101271.28;4943217;28;20103;-65
2021/08/31 10:13:08;;;;;;;13.60;7.57;;;;;;;12.12;96.53;101270.81;4950313;28;20043;-65
2021/08/31 10:15:39;;;;;;;18.38;7.07;;;;;;;12.27;94.86;101259.72;4956757;28;20046;-65
2021/08/31 10:18:05;;;;;;;17.33;6.60;;;;;;;12.50;94.16;101264.56;4952148;28;20039;-66
2021/08/31 10:20:32;;;;;;;13.90;6.70;;;;;;;12.58;92.73;101268.91;4954910;28;20176;-66
2021/08/31 10:23:01;;;;;;;15.57;5.75;;;;;;;12.58;92.58;101261.59;4957085;28;20086;-66
2021/08/31 10:25:27;;;;;;;11.60;5.35;;;;;;;12.69;89.91;101270.91;4957464;28;20054;-66
2021/08/31 10:27:54;;;;;;;12.93;5.45;;;;;;;12.84;89.08;101272.44;4957154;28;20427;-66
2021/08/31 10:30:20;;;;;;;19.92;5.60;;;;;;;13.07;89.08;101268.31;4964583;28;20042;-66
2021/08/31 10:32:49;;;;;;;11.75;5.13;;;;;;;13.27;86.28;101254.63;4959819;28;20050;-66
2021/08/31 10:35:44;;;;;;;12.65;4.65;;;;;;;13.47;83.55;101265.25;4961427;28;20043;-66
2021/08/31 10:38:12;;;;;;;13.63;4.95;;;;;;;13.34;84.69;101258.06;4961294;28;20046;-66
2021/08/31 10:40:44;;;;;;;11.05;5.15;;;;;;;13.23;84.20;101270.44;4960152;28;20065;-66
2021/08/31 10:43:15;;;;;;;16.52;5.50;;;;;;;13.26;84.71;101261.06;4952226;28;20043;-66
2021/08/31 10:45:42;;;;;;;13.90;5.13;;;;;;;13.08;86.25;101273.47;4959852;28;20035;-67
2021/08/31 10:48:23;;;;;;;10.63;4.90;;;;;;;12.84;86.16;101277.84;4950845;28;20039;-66
2021/08/31 10:50:58;;;;;;;14.63;4.85;;;;;;;12.49;87.50;101268.31;4619658;28;10001528;-66
2021/08/31 10:53:49;;;;;;;8.90;5.18;;;;;;;12.37;91.24;101275.47;4956588;28;20042;-66
2021/08/31 10:56:26;;;;;;;23.42;5.72;;;;;;;12.33;90.03;101279.63;4961255;28;20035;-66
2021/08/31 10:58:59;;;;;;;14.18;4.60;;;;;;;12.29;90.88;101279.22;4957267;28;20054;-66
2021/08/31 11:01:36;;;;;;;13.43;5.83;;;;;;;12.35;91.64;101281.06;4953002;28;20027;-66
2021/08/31 11:04:02;;;;;;;18.33;6.03;;;;;;;12.42;91.21;101276.47;4956546;28;20093;-66
2021/08/31 11:06:30;;;;;;;17.55;5.32;;;;;;;12.69;88.95;101281.72;4943760;28;20476;-66
2021/08/31 11:09:06;;;;;;;16.42;5.78;;;;;;;13.21;88.08;101282.53;4960198;28;20881;-66
2021/08/31 11:11:32;;;;;;;23.42;8.27;;;;;;;13.76;85.54;101274.50;4957015;28;20043;-66